Aérodrome :
LOGIN :

S'inscrire | Disclaimer

   EN    FR    IT 

 










Légende :    VFR   VFR Marginal   IFR   IFR Intensif   IFR Très Intensif
Visi : 
Plafond : 
>= 8 km
>= 3000ft
5 à 8 km
1000 à 3000 ft
1500m à 5 km
500 à 1000 ft
800 à 1500m
200 à 500 ft
< 800m
< 200 ft
Symboles :   Orages  Brouillard  Fortes neiges  Fortes précipitations  Vent > 20 kt
SIGMETs :   Divers  Orages  Givrage  Turbulence  Onde Orograph.  Cendres Volcan.






- Altitude de l'aérodrome : 124 ft
- Code IATA : NHT


EGWU - RAF Northolt

DERNIER METAR :
  • 161750Z 24011KT 9999 FEW019 SCT220 07/05 Q0997 RMK BLU

METARs EXPIRÉS :
  • 161723Z 24012KT 9999 FEW020 SCT220 07/05 Q0997 NOSIG RMK BLU BLU
  • 161650Z 24012KT 9999 FEW022 SCT070 07/05 Q0996 NOSIG RMK BLU BLU
  • 161625Z 25014KT 9999 SCT021 BKN070 08/05 Q0996 BECMG FEW021 RMK WHT BECMG BLU

TAF TAF EGWU
Valide du 16 à 18h jusqu'au 17 à 12h UTC


161630Z 1618/1712 24015G26KT 9999 FEW022 BKN045
PROB30
TEMPO 1618/1622 7000 SHRA SCT022CB
BECMG 1704/1707 23013KT



MET'MAP, la Météo Aéronautique d'un coup d'oeil ! - Copyright ORBIFLY Décembre 2007 - Disclaimer

ORBIFLY MET'MAP TEAM :

Programmation & Développement : Alexandra Zaïnal
Sur une idée originale de : Baudouin d'Aumeries
Assistance à la programmation : Marc-Olivier Méhu
Soutien technique & logistique : Manuel Goepfert

Contact : metmap@orbifly.com




SOURCES & CREDITS :

   NOAA